Time;durP1;ratioP1;P1;durP2;ratioP2;P2;SDS_P1;SDS_P2;PMS_P1;PMS_P2;Temp;Humidity;BMP_temperature;BMP_pressure;BME280_temperature;BME280_humidity;BME280_pressure;Samples;Min_cycle;Max_cycle;Signal;HPM_P1;HPM_P2
2023/09/09 00:02:23;;;;;;;13.52;9.73;;;17.20;99.90;;;;;;5010231;28;20038;-71
2023/09/09 00:04:54;;;;;;;13.73;9.85;;;17.10;99.90;;;;;;4978339;28;20042;-72
2023/09/09 00:07:22;;;;;;;14.23;9.80;;;17.20;99.90;;;;;;5010778;28;20050;-70
2023/09/09 00:09:49;;;;;;;12.20;9.40;;;17.10;99.90;;;;;;5009537;28;20080;-70
2023/09/09 00:12:17;;;;;;;11.23;9.40;;;17.10;99.90;;;;;;4996545;28;20069;-68
2023/09/09 00:14:44;;;;;;;11.38;9.55;;;17.10;99.90;;;;;;5009883;28;20046;-69
2023/09/09 00:17:12;;;;;;;14.45;9.35;;;17.10;99.90;;;;;;4989577;28;20069;-70
2023/09/09 00:19:40;;;;;;;13.35;9.73;;;17.20;99.90;;;;;;4994466;28;20041;-70
2023/09/09 00:22:08;;;;;;;10.55;9.13;;;17.10;99.90;;;;;;5009845;28;20050;-69
2023/09/09 00:24:36;;;;;;;11.32;9.45;;;17.20;99.90;;;;;;5010856;28;20511;-70
2023/09/09 00:27:05;;;;;;;11.27;9.70;;;17.10;99.90;;;;;;4992301;28;20053;-70
2023/09/09 00:29:34;;;;;;;11.80;10.05;;;17.10;99.90;;;;;;4987789;28;20133;-70
2023/09/09 00:32:04;;;;;;;11.52;10.00;;;17.10;99.90;;;;;;4976512;28;20041;-69
2023/09/09 00:34:33;;;;;;;13.52;10.07;;;17.00;99.90;;;;;;4976461;28;20042;-69
2023/09/09 00:37:03;;;;;;;12.23;10.40;;;17.00;99.90;;;;;;4995229;28;20042;-70
2023/09/09 00:39:32;;;;;;;13.65;9.90;;;16.90;99.90;;;;;;5009212;28;20037;-69
2023/09/09 00:42:00;;;;;;;10.95;9.65;;;16.80;99.90;;;;;;4975552;28;20042;-70
2023/09/09 00:44:28;;;;;;;15.10;10.45;;;16.80;99.90;;;;;;4993366;28;20533;-70
2023/09/09 00:47:00;;;;;;;14.40;9.88;;;16.70;99.90;;;;;;5010078;28;20133;-69
2023/09/09 00:49:28;;;;;;;13.35;9.40;;;16.70;99.90;;;;;;5008398;28;20053;-69
2023/09/09 00:51:56;;;;;;;14.48;10.50;;;16.60;99.90;;;;;;4992591;28;20042;-70
2023/09/09 00:54:24;;;;;;;12.32;9.98;;;16.60;99.90;;;;;;5009338;28;20091;-70
2023/09/09 00:57:00;;;;;;;16.30;10.13;;;16.60;99.90;;;;;;4991593;28;20046;-69
2023/09/09 00:59:28;;;;;;;11.52;9.25;;;16.60;99.90;;;;;;4992281;28;20153;-70
2023/09/09 01:01:57;;;;;;;11.07;9.18;;;16.50;99.90;;;;;;4990480;28;20112;-70
2023/09/09 01:04:26;;;;;;;13.02;9.85;;;16.50;99.90;;;;;;4976024;28;20045;-70
2023/09/09 01:06:56;;;;;;;13.07;9.95;;;16.50;99.90;;;;;;4992595;28;20060;-70
2023/09/09 01:09:24;;;;;;;13.80;9.80;;;16.50;99.90;;;;;;4983637;28;20243;-69
2023/09/09 01:11:52;;;;;;;14.02;9.80;;;16.40;99.90;;;;;;5007883;28;20038;-70
2023/09/09 01:14:20;;;;;;;11.43;9.70;;;16.40;99.90;;;;;;4999304;28;20045;-70
2023/09/09 01:16:51;;;;;;;13.75;9.90;;;16.30;99.90;;;;;;5010351;28;20533;-70
2023/09/09 01:19:25;;;;;;;14.90;10.57;;;16.40;99.90;;;;;;5007643;28;20046;-69
2023/09/09 01:21:54;;;;;;;14.57;10.80;;;16.30;99.90;;;;;;5009789;28;20038;-70
2023/09/09 01:24:22;;;;;;;15.45;10.02;;;16.30;99.90;;;;;;4991632;28;20054;-69
2023/09/09 01:26:49;;;;;;;13.98;10.20;;;16.20;99.90;;;;;;5009828;28;20041;-69
2023/09/09 01:29:17;;;;;;;15.02;10.45;;;16.20;99.90;;;;;;4992013;28;20041;-69
2023/09/09 01:31:44;;;;;;;16.83;10.60;;;16.20;99.90;;;;;;4992653;28;20522;-70
2023/09/09 01:34:12;;;;;;;17.30;11.00;;;16.10;99.90;;;;;;5009668;28;20041;-70
2023/09/09 01:36:39;;;;;;;17.50;11.40;;;16.10;99.90;;;;;;4976124;28;20103;-70
2023/09/09 01:39:07;;;;;;;13.65;10.95;;;16.00;99.90;;;;;;5008801;28;20339;-70
2023/09/09 01:41:34;;;;;;;15.15;10.45;;;16.00;99.90;;;;;;4993076;28;20052;-70
2023/09/09 01:44:02;;;;;;;18.85;11.25;;;15.90;99.90;;;;;;4994922;28;20050;-70
2023/09/09 01:46:29;;;;;;;18.80;11.85;;;15.90;99.90;;;;;;5008722;28;20080;-70
2023/09/09 01:48:57;;;;;;;16.55;10.30;;;15.90;99.90;;;;;;4991539;28;20136;-70
2023/09/09 01:51:26;;;;;;;20.58;11.10;;;15.90;99.90;;;;;;4991364;28;20129;-70
2023/09/09 01:53:53;;;;;;;20.10;11.40;;;15.90;99.90;;;;;;4991813;28;20133;-70
2023/09/09 01:56:21;;;;;;;19.45;10.60;;;15.90;99.90;;;;;;4989354;28;20604;-70
2023/09/09 01:58:48;;;;;;;17.50;11.27;;;15.90;99.90;;;;;;4983258;28;20038;-69
2023/09/09 02:01:16;;;;;;;20.02;11.65;;;15.80;99.90;;;;;;4990504;28;20564;-70
2023/09/09 02:03:43;;;;;;;15.82;11.77;;;15.80;99.90;;;;;;4992110;28;20041;-71
2023/09/09 02:06:11;;;;;;;19.92;11.75;;;15.80;99.90;;;;;;5009131;28;20586;-70
2023/09/09 02:08:39;;;;;;;19.10;11.95;;;15.80;99.90;;;;;;4991475;28;20053;-70
2023/09/09 02:11:06;;;;;;;23.52;12.85;;;15.80;99.90;;;;;;4991482;28;20422;-70
2023/09/09 02:13:34;;;;;;;22.15;12.90;;;15.70;99.90;;;;;;4990535;28;20034;-70
2023/09/09 02:16:04;;;;;;;20.88;12.05;;;15.70;99.90;;;;;;4999411;28;20120;-70
2023/09/09 02:18:32;;;;;;;20.55;12.30;;;15.70;99.90;;;;;;5001793;28;20129;-70
2023/09/09 02:21:00;;;;;;;19.40;12.10;;;15.70;99.90;;;;;;5007832;28;20038;-70
2023/09/09 02:23:27;;;;;;;23.00;12.63;;;15.70;99.90;;;;;;4974526;28;20062;-71
2023/09/09 02:25:56;;;;;;;21.90;11.25;;;15.70;99.90;;;;;;4990578;28;20132;-70
2023/09/09 02:28:24;;;;;;;22.42;12.85;;;15.60;99.90;;;;;;4989874;28;20075;-70
2023/09/09 02:30:52;;;;;;;21.85;12.00;;;15.60;99.90;;;;;;5009192;28;20470;-70
2023/09/09 02:33:19;;;;;;;22.13;13.35;;;15.50;99.90;;;;;;5002675;28;20035;-70
2023/09/09 02:35:47;;;;;;;21.75;12.45;;;15.50;99.90;;;;;;4991196;28;20044;-71
2023/09/09 02:38:14;;;;;;;20.60;13.32;;;15.50;99.90;;;;;;4990702;28;20140;-70
2023/09/09 02:40:41;;;;;;;20.98;13.32;;;15.50;99.90;;;;;;5007892;28;20121;-70
2023/09/09 02:43:10;;;;;;;23.85;13.57;;;15.50;99.90;;;;;;5007088;28;20042;-70
2023/09/09 02:45:38;;;;;;;22.45;12.73;;;15.50;99.90;;;;;;4975520;28;20050;-71
2023/09/09 02:48:06;;;;;;;20.92;12.80;;;15.50;99.90;;;;;;5006449;28;20046;-70
2023/09/09 02:50:35;;;;;;;20.75;12.23;;;15.50;99.90;;;;;;5001235;28;20050;-71
2023/09/09 02:53:03;;;;;;;20.13;11.73;;;15.40;99.90;;;;;;4973563;28;20514;-71
2023/09/09 02:55:30;;;;;;;19.63;12.68;;;15.40;99.90;;;;;;4988145;28;20312;-70
2023/09/09 02:57:58;;;;;;;20.02;12.73;;;15.40;99.90;;;;;;5008735;28;20038;-71
2023/09/09 03:00:26;;;;;;;22.00;12.98;;;15.30;99.90;;;;;;4990256;28;20030;-71
2023/09/09 03:02:53;;;;;;;21.63;12.57;;;15.30;99.90;;;;;;4988817;28;20612;-71
2023/09/09 03:05:20;;;;;;;21.33;13.35;;;15.20;99.90;;;;;;4974083;28;20046;-71
2023/09/09 03:07:48;;;;;;;21.25;12.90;;;15.20;99.90;;;;;;4990081;28;20469;-71
2023/09/09 03:10:16;;;;;;;21.17;12.88;;;15.20;99.90;;;;;;4989668;28;20694;-70
2023/09/09 03:12:43;;;;;;;23.80;13.00;;;15.20;99.90;;;;;;5007992;28;20038;-70
2023/09/09 03:15:11;;;;;;;19.02;12.73;;;15.20;99.90;;;;;;4990324;28;20051;-70
2023/09/09 03:17:38;;;;;;;21.77;12.57;;;15.10;99.90;;;;;;4999741;28;20042;-71
2023/09/09 03:20:07;;;;;;;19.80;12.25;;;15.10;99.90;;;;;;4999761;28;20061;-70
2023/09/09 03:22:35;;;;;;;20.33;12.00;;;15.10;99.90;;;;;;4993425;28;20050;-71
2023/09/09 03:25:02;;;;;;;22.77;12.18;;;15.10;99.90;;;;;;4993153;28;20100;-71
2023/09/09 03:27:29;;;;;;;22.38;12.95;;;15.00;99.90;;;;;;5009952;28;20057;-70
2023/09/09 03:29:57;;;;;;;23.33;13.18;;;15.00;99.90;;;;;;5010141;28;20410;-70
2023/09/09 03:32:25;;;;;;;22.00;11.88;;;15.00;99.90;;;;;;4994779;28;20053;-71
2023/09/09 03:34:53;;;;;;;23.42;13.27;;;14.90;99.90;;;;;;5011374;28;20562;-71
2023/09/09 03:37:21;;;;;;;16.30;11.13;;;14.90;99.90;;;;;;5010397;28;20121;-71
2023/09/09 03:39:49;;;;;;;21.75;11.88;;;14.90;99.90;;;;;;5002832;28;20065;-70
2023/09/09 03:42:16;;;;;;;18.27;11.85;;;14.90;99.90;;;;;;4981428;28;20050;-71
2023/09/09 03:44:44;;;;;;;19.92;12.70;;;14.90;99.90;;;;;;5011154;28;20069;-71
2023/09/09 03:47:11;;;;;;;19.60;12.10;;;14.90;99.90;;;;;;4994083;28;20127;-70
2023/09/09 03:49:38;;;;;;;19.65;11.85;;;14.80;99.90;;;;;;4993389;28;20053;-71
2023/09/09 03:52:06;;;;;;;17.98;11.63;;;14.80;99.90;;;;;;5005846;28;20267;-71
2023/09/09 03:54:34;;;;;;;23.55;12.82;;;14.80;99.90;;;;;;4993380;28;20514;-72
2023/09/09 03:57:02;;;;;;;21.40;11.80;;;14.80;99.90;;;;;;4993542;28;20045;-72
2023/09/09 03:59:31;;;;;;;19.15;11.73;;;14.80;99.90;;;;;;5000281;28;20040;-71
2023/09/09 04:02:00;;;;;;;19.08;11.60;;;14.80;99.90;;;;;;4981790;28;20564;-72
2023/09/09 04:04:27;;;;;;;20.83;11.80;;;14.80;99.90;;;;;;4976862;28;20096;-71
2023/09/09 04:06:55;;;;;;;20.95;11.88;;;14.80;99.90;;;;;;5011756;28;20521;-71
2023/09/09 04:09:26;;;;;;;20.75;15.07;;;14.70;99.90;;;;;;4993803;28;20053;-70
2023/09/09 04:11:55;;;;;;;;;;;14.80;99.90;;;;;;5011197;28;20034;-72
2023/09/09 04:14:22;;;;;;;16.65;11.95;;;14.80;99.90;;;;;;5011011;28;20389;-71
2023/09/09 04:16:49;;;;;;;17.75;11.75;;;14.80;99.90;;;;;;4993046;28;20053;-71
2023/09/09 04:19:17;;;;;;;30.23;12.75;;;14.80;99.90;;;;;;4992438;28;20576;-71
2023/09/09 04:21:45;;;;;;;16.10;11.50;;;14.80;99.90;;;;;;5011341;28;20068;-70
2023/09/09 04:24:13;;;;;;;15.93;11.52;;;14.80;99.90;;;;;;4987614;28;20469;-70
2023/09/09 04:26:40;;;;;;;21.15;11.80;;;14.80;99.90;;;;;;5007119;28;20052;-71
2023/09/09 04:29:07;;;;;;;26.40;12.57;;;14.80;99.90;;;;;;5008215;28;20486;-70
2023/09/09 04:31:35;;;;;;;19.42;11.57;;;14.70;99.90;;;;;;4994010;28;20129;-70
2023/09/09 04:34:02;;;;;;;17.75;12.55;;;14.70;99.90;;;;;;4995412;28;20042;-71
2023/09/09 04:36:30;;;;;;;15.57;10.98;;;14.70;99.90;;;;;;4976514;28;20192;-71
2023/09/09 04:38:57;;;;;;;14.82;11.52;;;14.70;99.90;;;;;;5009526;28;20144;-72
2023/09/09 04:41:24;;;;;;;14.40;10.70;;;14.70;99.90;;;;;;4995841;28;20053;-72
2023/09/09 04:43:52;;;;;;;18.38;11.75;;;14.70;99.90;;;;;;4985777;28;20502;-72
2023/09/09 04:46:19;;;;;;;20.30;12.30;;;14.70;99.90;;;;;;5009995;28;20514;-72
2023/09/09 04:48:52;;;;;;;18.80;11.25;;;14.70;99.90;;;;;;4988639;28;20433;-70
2023/09/09 04:51:20;;;;;;;20.98;11.65;;;14.70;99.90;;;;;;4989593;28;20111;-70
2023/09/09 04:53:47;;;;;;;15.70;11.90;;;14.70;99.90;;;;;;4993211;28;20124;-71
2023/09/09 04:56:14;;;;;;;17.38;12.23;;;14.70;99.90;;;;;;5007419;28;20050;-70
2023/09/09 04:58:42;;;;;;;16.70;11.13;;;14.70;99.90;;;;;;4976480;28;20518;-70
2023/09/09 05:01:10;;;;;;;17.20;10.85;;;14.70;99.90;;;;;;4998269;28;20042;-71
2023/09/09 05:03:37;;;;;;;16.10;10.95;;;14.70;99.90;;;;;;4993309;28;20046;-71
2023/09/09 05:06:05;;;;;;;18.02;11.85;;;14.80;99.90;;;;;;4992146;28;20050;-70
2023/09/09 05:08:33;;;;;;;19.48;11.73;;;14.80;99.90;;;;;;4976023;28;20366;-69
2023/09/09 05:11:01;;;;;;;16.88;11.00;;;14.90;99.90;;;;;;5008620;28;20425;-70
2023/09/09 05:13:30;;;;;;;17.10;11.40;;;14.90;99.90;;;;;;4991593;28;20395;-71
2023/09/09 05:15:59;;;;;;;15.52;10.27;;;15.00;99.90;;;;;;4992302;28;20084;-69
2023/09/09 05:18:28;;;;;;;18.00;11.30;;;15.00;99.90;;;;;;5009268;28;20030;-70
2023/09/09 05:20:55;;;;;;;15.50;10.95;;;15.10;99.90;;;;;;4993113;28;20039;-69
2023/09/09 05:23:23;;;;;;;14.40;10.40;;;15.20;99.90;;;;;;4991347;28;20479;-69
2023/09/09 05:25:51;;;;;;;14.30;10.77;;;15.20;99.90;;;;;;5007946;28;20067;-69
2023/09/09 05:28:18;;;;;;;15.25;11.57;;;15.30;99.90;;;;;;5009481;28;20056;-70
2023/09/09 05:30:46;;;;;;;16.73;11.60;;;15.30;99.90;;;;;;4983749;28;20042;-70
2023/09/09 05:33:13;;;;;;;15.70;11.15;;;15.30;99.90;;;;;;4990458;28;20034;-70
2023/09/09 05:35:41;;;;;;;11.95;10.18;;;15.40;99.90;;;;;;4991289;28;20034;-70
2023/09/09 05:38:08;;;;;;;16.65;11.55;;;15.50;99.90;;;;;;4998045;28;20104;-69
2023/09/09 05:40:36;;;;;;;13.95;10.07;;;15.50;99.90;;;;;;5007437;28;20088;-70
2023/09/09 05:43:03;;;;;;;14.02;10.25;;;15.60;99.90;;;;;;4989345;28;20154;-69
2023/09/09 05:45:31;;;;;;;13.38;9.93;;;15.70;99.90;;;;;;5008903;28;20125;-70
2023/09/09 05:47:59;;;;;;;12.18;9.90;;;15.70;99.90;;;;;;4989265;28;20466;-70
2023/09/09 05:50:26;;;;;;;13.48;9.63;;;15.80;99.90;;;;;;5007057;28;20121;-70
2023/09/09 05:52:54;;;;;;;15.23;9.98;;;15.80;99.90;;;;;;5008681;28;20054;-69
2023/09/09 05:55:26;;;;;;;;;;;15.90;99.90;;;;;;5009384;28;20144;-69
2023/09/09 05:57:54;;;;;;;14.40;9.82;;;16.00;99.90;;;;;;5008819;28;19932;-70
2023/09/09 06:00:21;;;;;;;13.20;9.50;;;16.00;99.90;;;;;;4974021;28;20054;-71
2023/09/09 06:02:49;;;;;;;13.35;9.90;;;16.10;99.90;;;;;;5001072;28;20077;-70
2023/09/09 06:05:16;;;;;;;17.52;8.85;;;16.10;99.90;;;;;;4981325;28;20049;-70
2023/09/09 06:07:44;;;;;;;12.75;9.73;;;16.20;99.90;;;;;;4973509;28;20116;-69
2023/09/09 06:10:12;;;;;;;17.52;9.90;;;16.20;99.90;;;;;;5007433;28;20041;-70
2023/09/09 06:12:40;;;;;;;14.55;10.18;;;16.30;99.90;;;;;;4981431;28;20042;-70
2023/09/09 06:15:08;;;;;;;14.10;10.85;;;16.30;99.90;;;;;;4990855;28;20030;-69
2023/09/09 06:17:39;;;;;;;15.05;10.45;;;16.30;99.90;;;;;;4990909;28;20041;-70
2023/09/09 06:20:14;;;;;;;14.63;11.38;;;16.40;99.90;;;;;;5000165;28;20488;-71
2023/09/09 06:22:43;;;;;;;;;;;16.50;99.90;;;;;;4982163;28;20046;-70
2023/09/09 06:25:14;;;;;;;14.52;9.98;;;16.50;99.90;;;;;;4991051;28;19929;-70
2023/09/09 06:27:43;;;;;;;12.25;10.30;;;16.60;99.90;;;;;;4974076;28;20609;-70
2023/09/09 06:30:11;;;;;;;12.80;10.32;;;16.70;99.90;;;;;;4989920;28;20437;-70
2023/09/09 06:32:39;;;;;;;12.13;9.73;;;16.80;99.90;;;;;;5009213;28;20188;-71
2023/09/09 06:35:07;;;;;;;13.02;10.75;;;16.90;99.90;;;;;;4990436;28;20494;-70
2023/09/09 06:37:37;;;;;;;13.00;10.57;;;17.00;99.90;;;;;;4991583;28;20045;-70
2023/09/09 06:40:05;;;;;;;16.90;10.20;;;17.00;99.90;;;;;;5008415;28;20034;-70
2023/09/09 06:42:33;;;;;;;11.88;9.63;;;17.20;99.90;;;;;;4988447;28;20149;-70
2023/09/09 06:45:01;;;;;;;14.07;10.20;;;17.20;99.90;;;;;;4991485;28;20065;-71
2023/09/09 06:47:28;;;;;;;13.52;10.73;;;17.30;99.90;;;;;;4995815;28;20089;-69
2023/09/09 06:49:55;;;;;;;12.95;10.48;;;17.40;99.90;;;;;;5009350;28;20065;-70
2023/09/09 06:52:23;;;;;;;15.45;10.75;;;17.50;99.90;;;;;;5001089;28;20080;-69
2023/09/09 06:54:51;;;;;;;16.27;10.38;;;17.60;99.90;;;;;;4994788;28;20111;-69
2023/09/09 06:57:19;;;;;;;12.63;9.77;;;17.70;99.90;;;;;;4978174;28;20137;-69
2023/09/09 06:59:46;;;;;;;14.88;10.55;;;17.80;99.90;;;;;;4978613;28;20156;-70
2023/09/09 07:02:13;;;;;;;12.52;8.98;;;17.90;99.90;;;;;;4992289;28;20196;-70
2023/09/09 07:04:42;;;;;;;12.43;9.75;;;18.00;99.90;;;;;;4993202;28;20049;-70
2023/09/09 07:07:09;;;;;;;11.10;9.40;;;18.10;99.90;;;;;;5002240;28;20053;-70
2023/09/09 07:09:42;;;;;;;13.70;9.88;;;18.20;99.90;;;;;;4992470;28;20054;-71
2023/09/09 07:12:13;;;;;;;11.15;9.18;;;18.30;99.90;;;;;;5009347;28;20110;-71
2023/09/09 07:14:40;;;;;;;13.43;9.93;;;18.40;99.90;;;;;;5011652;28;20038;-70
2023/09/09 07:17:08;;;;;;;11.55;10.23;;;18.50;99.90;;;;;;4991495;28;20045;-68
2023/09/09 07:19:36;;;;;;;14.23;10.63;;;18.50;99.90;;;;;;5008648;28;20038;-68
2023/09/09 07:22:05;;;;;;;13.70;9.85;;;18.60;99.90;;;;;;5010431;28;20128;-69
2023/09/09 07:24:33;;;;;;;13.23;10.90;;;18.70;99.90;;;;;;4992367;28;20054;-70
2023/09/09 07:27:04;;;;;;;11.70;10.50;;;18.70;99.90;;;;;;4995455;28;20038;-71
2023/09/09 07:29:31;;;;;;;13.60;10.32;;;18.80;99.90;;;;;;4992956;28;20069;-70
2023/09/09 07:31:59;;;;;;;14.60;12.15;;;19.00;99.90;;;;;;4993309;28;20576;-70
2023/09/09 07:34:26;;;;;;;14.05;11.60;;;19.10;99.90;;;;;;4976559;28;20137;-72
2023/09/09 07:36:54;;;;;;;11.43;9.95;;;19.20;99.90;;;;;;4994295;28;20490;-70
2023/09/09 07:39:21;;;;;;;12.93;10.50;;;19.30;99.90;;;;;;5005561;28;20129;-69
2023/09/09 07:41:49;;;;;;;10.90;9.80;;;19.50;99.90;;;;;;5007749;28;20042;-70
2023/09/09 07:44:17;;;;;;;13.95;10.50;;;19.60;99.90;;;;;;5010102;28;20049;-70
2023/09/09 07:46:44;;;;;;;11.07;9.65;;;19.70;99.90;;;;;;4992745;28;20058;-71
2023/09/09 07:49:11;;;;;;;11.27;10.07;;;19.80;99.90;;;;;;5007779;28;20069;-70
2023/09/09 07:51:39;;;;;;;13.65;10.65;;;20.30;99.90;;;;;;5009609;28;20059;-70
2023/09/09 07:54:06;;;;;;;15.55;10.65;;;20.40;99.90;;;;;;4992526;28;20062;-70
2023/09/09 07:56:33;;;;;;;12.85;10.80;;;20.50;99.90;;;;;;5003636;28;20042;-70
2023/09/09 07:59:01;;;;;;;13.32;10.80;;;20.50;99.90;;;;;;4991388;28;20042;-69
2023/09/09 08:01:28;;;;;;;15.23;11.68;;;20.60;99.90;;;;;;4998771;28;20046;-70
2023/09/09 08:03:56;;;;;;;14.27;10.65;;;20.70;99.90;;;;;;5007994;28;20046;-70
2023/09/09 08:06:23;;;;;;;12.95;10.95;;;20.70;99.90;;;;;;5006405;28;20045;-70
2023/09/09 08:08:51;;;;;;;11.75;10.18;;;20.90;99.90;;;;;;5006472;28;20141;-70
2023/09/09 08:11:18;;;;;;;19.88;16.00;;;21.00;99.90;;;;;;5008446;28;20050;-67
2023/09/09 08:13:46;;;;;;;16.60;12.80;;;21.10;99.90;;;;;;5006663;28;20250;-71
2023/09/09 08:16:13;;;;;;;13.70;10.52;;;21.20;99.90;;;;;;4992498;28;20077;-71
2023/09/09 08:18:41;;;;;;;12.57;10.82;;;21.30;99.90;;;;;;5009953;28;20044;-71
2023/09/09 08:21:10;;;;;;;13.20;11.30;;;21.40;99.90;;;;;;5000003;28;20133;-71
2023/09/09 08:23:37;;;;;;;14.93;11.60;;;21.50;99.90;;;;;;4975929;28;20116;-69
2023/09/09 08:26:05;;;;;;;12.98;10.88;;;21.60;99.90;;;;;;5007335;28;20041;-71
2023/09/09 08:28:33;;;;;;;16.17;10.82;;;21.60;99.90;;;;;;4987416;28;20430;-70
2023/09/09 08:31:01;;;;;;;12.13;10.95;;;21.70;99.90;;;;;;5009634;28;20112;-69
2023/09/09 08:33:28;;;;;;;14.32;10.80;;;21.80;99.90;;;;;;5007135;28;20038;-69
2023/09/09 08:36:00;;;;;;;12.68;10.05;;;22.00;99.90;;;;;;4992991;28;20070;-70
2023/09/09 08:38:28;;;;;;;11.45;10.18;;;22.10;99.90;;;;;;4991726;28;20655;-70
2023/09/09 08:41:27;;;;;;;11.73;9.57;;;22.30;99.90;;;;;;5010169;28;20038;-70
2023/09/09 08:44:25;;;;;;;10.13;9.13;;;22.30;99.90;;;;;;5006349;28;20053;-70
2023/09/09 08:46:54;;;;;;;12.77;9.95;;;22.50;99.90;;;;;;4990568;28;20362;-70
2023/09/09 08:49:24;;;;;;;13.30;10.00;;;22.60;99.90;;;;;;5009921;28;20053;-70
2023/09/09 08:52:02;;;;;;;13.23;9.88;;;22.70;99.90;;;;;;5009103;28;20038;-70
2023/09/09 08:54:30;;;;;;;13.45;10.30;;;22.80;99.90;;;;;;4974716;28;20069;-70
2023/09/09 08:57:00;;;;;;;13.98;10.55;;;23.00;99.90;;;;;;5007335;28;20194;-68
2023/09/09 08:59:29;;;;;;;11.60;10.38;;;23.10;99.90;;;;;;4994953;28;20104;-69
2023/09/09 09:01:57;;;;;;;11.10;10.00;;;23.20;99.90;;;;;;4991440;28;20037;-69
2023/09/09 09:04:27;;;;;;;13.13;10.20;;;23.30;99.90;;;;;;4983351;28;20053;-69
2023/09/09 09:06:57;;;;;;;14.10;12.55;;;23.40;99.90;;;;;;5009828;28;20509;-69
2023/09/09 09:09:24;;;;;;;13.02;10.25;;;23.60;99.90;;;;;;5009194;28;20157;-69
2023/09/09 09:11:53;;;;;;;13.75;9.38;;;23.60;99.90;;;;;;5009429;28;20076;-69
2023/09/09 09:14:20;;;;;;;11.82;10.38;;;23.80;99.90;;;;;;4990728;28;20046;-70
2023/09/09 09:16:48;;;;;;;11.02;9.07;;;23.90;99.90;;;;;;4991782;28;20070;-71
2023/09/09 09:19:30;;;;;;;13.23;10.48;;;24.00;99.90;;;;;;5009068;28;20038;-69
2023/09/09 09:21:59;;;;;;;11.25;10.05;;;24.10;99.90;;;;;;5004339;28;20125;-71
2023/09/09 09:24:27;;;;;;;12.30;10.73;;;24.20;99.90;;;;;;5009732;28;20324;-69
2023/09/09 09:26:55;;;;;;;11.65;10.30;;;24.40;99.90;;;;;;4990919;28;20034;-71
2023/09/09 09:29:23;;;;;;;13.50;9.70;;;24.40;99.90;;;;;;5009079;28;20050;-71
2023/09/09 09:31:54;;;;;;;10.65;9.65;;;24.50;99.90;;;;;;5009260;28;20042;-71
2023/09/09 09:34:32;;;;;;;17.67;13.43;;;24.70;99.90;;;;;;5009010;28;20033;-69
2023/09/09 09:37:13;;;;;;;12.13;10.80;;;24.80;99.90;;;;;;4990566;28;20048;-70
2023/09/09 09:39:40;;;;;;;13.23;10.73;;;25.00;99.90;;;;;;4990870;28;20493;-69
2023/09/09 09:42:12;;;;;;;14.13;10.45;;;25.10;99.90;;;;;;5001124;28;20092;-68
2023/09/09 09:44:39;;;;;;;13.03;10.50;;;25.10;99.90;;;;;;5008308;28;20041;-71
2023/09/09 09:47:08;;;;;;;12.32;9.93;;;25.10;99.90;;;;;;5009502;28;20293;-70
2023/09/09 09:49:40;;;;;;;11.40;10.20;;;25.30;99.90;;;;;;5007180;28;20053;-70
2023/09/09 09:52:09;;;;;;;12.10;10.30;;;25.40;99.90;;;;;;5008350;28;20034;-69
2023/09/09 09:54:38;;;;;;;12.02;10.25;;;25.50;99.90;;;;;;5008862;28;20478;-71
2023/09/09 09:57:06;;;;;;;11.80;10.23;;;25.70;99.90;;;;;;5008319;28;20072;-71
2023/09/09 09:59:36;;;;;;;11.80;10.60;;;25.70;99.90;;;;;;4973735;28;20041;-71
2023/09/09 10:02:03;;;;;;;11.23;10.13;;;25.80;99.90;;;;;;4995266;28;20052;-70
2023/09/09 10:04:42;;;;;;;14.18;11.57;;;25.80;99.90;;;;;;5011611;28;20038;-71
2023/09/09 10:07:17;;;;;;;13.00;11.70;;;26.00;99.90;;;;;;4991439;28;20191;-70
2023/09/09 10:10:07;;;;;;;12.70;10.32;;;26.30;99.90;;;;;;4996284;28;20072;-71
2023/09/09 10:13:07;;;;;;;12.27;11.05;;;26.40;99.90;;;;;;4997355;28;20047;-71
2023/09/09 10:15:36;;;;;;;12.05;10.80;;;26.70;99.90;;;;;;4989734;28;20049;-71
2023/09/09 10:18:05;;;;;;;11.70;10.50;;;26.80;99.90;;;;;;5010284;28;20038;-70
2023/09/09 10:20:35;;;;;;;10.82;9.73;;;26.80;99.90;;;;;;5009287;28;20130;-71
2023/09/09 10:23:04;;;;;;;12.13;9.68;;;27.00;99.90;;;;;;4991416;28;20065;-70
2023/09/09 10:25:33;;;;;;;10.88;9.77;;;27.30;99.90;;;;;;4994883;28;20044;-70
2023/09/09 10:28:03;;;;;;;13.55;10.18;;;27.50;99.90;;;;;;5024059;28;20042;-70
2023/09/09 10:30:34;;;;;;;11.63;10.45;;;27.80;99.90;;;;;;5013527;28;20045;-70
2023/09/09 10:33:06;;;;;;;14.55;11.55;;;28.00;99.90;;;;;;5015269;28;20415;-71
2023/09/09 10:35:37;;;;;;;11.40;10.20;;;28.20;99.90;;;;;;4980732;28;20410;-70
2023/09/09 10:38:06;;;;;;;11.43;10.32;;;28.40;99.90;;;;;;5017885;28;20417;-70
2023/09/09 10:40:34;;;;;;;11.15;9.93;;;28.70;99.90;;;;;;4994729;28;20468;-72
2023/09/09 10:43:02;;;;;;;11.25;10.25;;;28.80;99.90;;;;;;4996087;28;20048;-70
2023/09/09 10:45:31;;;;;;;13.35;9.68;;;29.00;99.90;;;;;;4994039;28;20061;-70
2023/09/09 10:48:04;;;;;;;10.98;9.88;;;29.20;99.90;;;;;;5017022;28;20458;-71
2023/09/09 10:50:41;;;;;;;10.65;9.35;;;29.30;99.90;;;;;;5017606;28;20054;-70
2023/09/09 10:53:30;;;;;;;11.32;10.18;;;29.30;99.90;;;;;;4994324;28;20046;-70
2023/09/09 10:56:16;;;;;;;12.43;10.20;;;29.50;99.90;;;;;;4995867;28;20060;-69
2023/09/09 10:58:52;;;;;;;11.30;10.13;;;29.80;99.90;;;;;;4993159;28;20045;-69
2023/09/09 11:01:24;;;;;;;11.23;10.02;;;30.10;99.90;;;;;;5007471;28;20038;-69
2023/09/09 11:03:52;;;;;;;10.88;9.35;;;30.20;99.90;;;;;;5014205;28;20064;-69
2023/09/09 11:06:33;;;;;;;10.25;9.25;;;30.40;99.90;;;;;;5011883;28;20046;-70
2023/09/09 11:09:02;;;;;;;11.50;9.23;;;30.60;99.90;;;;;;4992477;28;20140;-69
2023/09/09 11:11:37;;;;;;;19.00;16.02;;;30.70;99.90;;;;;;5001686;28;20137;-70
2023/09/09 11:14:06;;;;;;;14.60;11.60;;;31.00;99.90;;;;;;5017601;28;20057;-70
2023/09/09 11:16:33;;;;;;;11.30;10.30;;;31.00;99.80;;;;;;5008385;28;20125;-70
2023/09/09 11:19:10;;;;;;;13.45;10.02;;;31.40;99.10;;;;;;5010835;28;20046;-71
2023/09/09 11:21:40;;;;;;;11.75;10.60;;;31.50;98.30;;;;;;5014613;28;20041;-71
2023/09/09 11:24:09;;;;;;;10.87;9.67;;;32.00;96.40;;;;;;5012445;28;20516;-70
2023/09/09 11:26:43;;;;;;;11.68;10.57;;;32.20;95.40;;;;;;4992118;28;20046;-71
2023/09/09 11:29:11;;;;;;;9.80;8.80;;;32.60;94.20;;;;;;4990979;28;20049;-71
2023/09/09 11:31:59;;;;;;;11.60;8.98;;;32.90;93.00;;;;;;5007704;28;20425;-71
2023/09/09 11:34:32;;;;;;;10.93;9.80;;;32.90;92.80;;;;;;4995618;28;20566;-71
2023/09/09 11:37:02;;;;;;;10.93;9.02;;;33.20;92.30;;;;;;4994181;28;20146;-70
2023/09/09 11:39:30;;;;;;;10.52;9.52;;;33.50;91.00;;;;;;5009968;28;20037;-71
2023/09/09 11:42:01;;;;;;;9.45;8.65;;;33.70;90.40;;;;;;4993916;28;20111;-71
2023/09/09 11:44:28;;;;;;;11.13;9.73;;;33.90;88.40;;;;;;4990857;28;20152;-71
2023/09/09 11:46:55;;;;;;;10.70;9.25;;;33.80;86.20;;;;;;4992510;28;20065;-71
2023/09/09 11:49:23;;;;;;;10.38;8.85;;;33.40;87.40;;;;;;4994635;28;20054;-71
2023/09/09 11:51:50;;;;;;;11.57;9.43;;;33.70;87.40;;;;;;5015137;28;20525;-71
2023/09/09 11:54:19;;;;;;;10.73;9.57;;;33.90;86.20;;;;;;5021481;28;20133;-71
2023/09/09 11:56:47;;;;;;;10.52;9.43;;;34.50;84.40;;;;;;5000647;28;20136;-72
2023/09/09 11:59:15;;;;;;;10.38;8.90;;;34.70;83.60;;;;;;5016112;28;20458;-71
2023/09/09 12:01:44;;;;;;;8.95;8.05;;;35.10;81.40;;;;;;4997247;28;20548;-71
2023/09/09 12:04:13;;;;;;;10.15;9.20;;;35.40;79.80;;;;;;5008809;28;20046;-70
2023/09/09 12:06:47;;;;;;;11.48;9.00;;;35.90;78.00;;;;;;5001280;28;20054;-70
2023/09/09 12:09:17;;;;;;;9.77;8.77;;;36.00;75.70;;;;;;4996602;28;20537;-71
2023/09/09 12:11:45;;;;;;;11.23;8.43;;;36.00;74.90;;;;;;5009938;28;20053;-71
2023/09/09 12:14:14;;;;;;;9.50;8.48;;;35.90;75.50;;;;;;5004145;28;20414;-71
2023/09/09 12:16:45;;;;;;;11.10;8.80;;;36.20;74.90;;;;;;4980936;28;20049;-71
2023/09/09 12:19:13;;;;;;;11.38;8.68;;;35.10;73.30;;;;;;4992138;28;20045;-71
2023/09/09 12:21:48;;;;;;;8.85;8.05;;;35.20;73.40;;;;;;4990315;28;20042;-70
2023/09/09 12:24:16;;;;;;;9.57;8.63;;;35.90;73.00;;;;;;4992537;28;20085;-71
2023/09/09 12:26:54;;;;;;;9.88;8.90;;;36.30;70.40;;;;;;5009859;28;20046;-71
2023/09/09 12:29:21;;;;;;;9.07;8.27;;;36.20;70.80;;;;;;5006317;28;20399;-72
2023/09/09 12:31:54;;;;;;;9.80;8.90;;;36.60;68.40;;;;;;5014716;28;20092;-71
2023/09/09 12:34:24;;;;;;;10.32;8.55;;;36.20;67.00;;;;;;5005191;28;20118;-69
2023/09/09 12:36:59;;;;;;;9.13;8.32;;;35.40;66.50;;;;;;4991385;28;20038;-69
2023/09/09 12:39:28;;;;;;;9.70;8.60;;;35.20;67.90;;;;;;4984340;28;20054;-69
2023/09/09 12:41:59;;;;;;;9.60;8.60;;;36.10;66.60;;;;;;5008527;28;20153;-71